createdAt,value
2023-02-28T00:00:39.547Z,102283.91
2023-02-28T00:05:41.190Z,102276.81
2023-02-28T00:10:42.702Z,102275.09
2023-02-28T00:15:44.278Z,102266.25
2023-02-28T00:20:46.137Z,102270.72
2023-02-28T00:25:47.673Z,102272.50
2023-02-28T00:30:49.228Z,102276.41
2023-02-28T00:35:50.770Z,102275.66
2023-02-28T00:40:52.276Z,102278.97
2023-02-28T00:45:53.795Z,102274.41
2023-02-28T00:50:55.567Z,102276.97
2023-02-28T00:55:57.128Z,102281.72
2023-02-28T01:00:58.644Z,102278.53
2023-02-28T01:06:00.273Z,102269.22
2023-02-28T01:11:09.888Z,102280.94
2023-02-28T01:16:11.460Z,102282.06
2023-02-28T01:21:16.627Z,102285.28
2023-02-28T01:26:22.155Z,102285.97
2023-02-28T01:31:24.629Z,102287.03
2023-02-28T01:36:26.509Z,102278.88
2023-02-28T01:41:32.170Z,102280.44
2023-02-28T01:46:36.506Z,102270.88
2023-02-28T01:51:54.170Z,102271.09
2023-02-28T01:57:24.815Z,102261.31
2023-02-28T02:02:28.371Z,102269.56
2023-02-28T02:07:34.789Z,102259.22
2023-02-28T02:12:59.569Z,102255.25
2023-02-28T02:18:13.502Z,102251.59
2023-02-28T02:23:28.554Z,102242.75
2023-02-28T02:28:44.403Z,102242.59
2023-02-28T02:34:08.245Z,102244.34
2023-02-28T02:39:18.791Z,102238.91
2023-02-28T02:44:32.404Z,102246.69
2023-02-28T02:49:36.531Z,102245.34
2023-02-28T02:54:41.324Z,102249.91
2023-02-28T02:59:44.559Z,102247.09
2023-02-28T03:04:54.588Z,102242.81
2023-02-28T03:09:58.588Z,102243.38
2023-02-28T03:15:16.910Z,102242.53
2023-02-28T03:20:38.687Z,102236.69
2023-02-28T03:26:31.065Z,102228.66
2023-02-28T03:31:42.468Z,102227.19
2023-02-28T03:36:53.480Z,102227.09
2023-02-28T03:42:00.263Z,102226.31
2023-02-28T03:47:08.702Z,102226.97
2023-02-28T03:52:10.258Z,102226.09
2023-02-28T03:57:18.957Z,102231.38
2023-02-28T04:02:20.436Z,102228.19
2023-02-28T04:07:22.022Z,102232.84
2023-02-28T04:12:23.617Z,102239.06
2023-02-28T04:17:25.103Z,102239.94
2023-02-28T04:22:26.712Z,102242.00
2023-02-28T04:27:28.183Z,102234.63
2023-02-28T04:32:29.743Z,102235.44
2023-02-28T04:37:31.283Z,102243.69
2023-02-28T04:42:32.757Z,102255.53
2023-02-28T04:47:34.240Z,102244.25
2023-02-28T04:52:35.729Z,102248.59
2023-02-28T04:57:37.258Z,102254.88
2023-02-28T05:02:38.995Z,102258.13
2023-02-28T05:07:40.570Z,102268.00
2023-02-28T05:12:42.267Z,102258.81
2023-02-28T05:17:44.574Z,102266.94
2023-02-28T05:22:46.205Z,102269.69
2023-02-28T05:27:47.773Z,102268.19
2023-02-28T05:32:52.273Z,102266.13
2023-02-28T05:37:53.867Z,102271.34
2023-02-28T05:42:55.368Z,102266.97
2023-02-28T05:47:56.893Z,102277.88
2023-02-28T05:52:58.398Z,102272.47
2023-02-28T05:57:59.993Z,102272.88
2023-02-28T06:03:01.493Z,102277.19
2023-02-28T06:08:03.050Z,102267.31
2023-02-28T06:13:05.643Z,102268.78
2023-02-28T06:18:07.174Z,102278.78
2023-02-28T06:23:08.674Z,102285.53
2023-02-28T06:28:10.231Z,102286.88
2023-02-28T06:33:11.768Z,102294.00
2023-02-28T06:38:13.301Z,102297.44
2023-02-28T06:43:14.805Z,102303.03
2023-02-28T06:48:16.800Z,102302.13
2023-02-28T06:53:18.415Z,102314.81
2023-02-28T06:58:19.911Z,102324.16
2023-02-28T07:03:21.514Z,102327.34
2023-02-28T07:08:24.638Z,102331.66
2023-02-28T07:13:26.366Z,102324.28
2023-02-28T07:18:27.977Z,102325.25
2023-02-28T07:23:29.467Z,102334.69
2023-02-28T07:28:31.014Z,102328.34
2023-02-28T07:33:32.691Z,102336.81
2023-02-28T07:38:37.997Z,102338.38
2023-02-28T07:43:39.494Z,102334.06
2023-02-28T07:48:40.978Z,102339.81
2023-02-28T07:53:42.490Z,102344.91
2023-02-28T07:58:43.969Z,102336.88
2023-02-28T08:03:45.549Z,102344.75
2023-02-28T08:08:47.848Z,102354.63
2023-02-28T08:13:49.345Z,102350.53
2023-02-28T08:18:52.728Z,102344.81
2023-02-28T08:23:54.248Z,102360.16
2023-02-28T08:28:57.273Z,102362.66
2023-02-28T08:33:59.873Z,102360.69
2023-02-28T08:39:01.571Z,102358.69
2023-02-28T08:44:03.063Z,102353.50
2023-02-28T08:49:04.588Z,102363.38
2023-02-28T08:54:06.128Z,102365.88
2023-02-28T08:59:09.977Z,102367.34
2023-02-28T09:04:11.548Z,102373.06
2023-02-28T09:09:13.026Z,102354.44
2023-02-28T09:14:14.566Z,102357.81
2023-02-28T09:19:16.113Z,102347.91
2023-02-28T09:24:17.599Z,102356.34
2023-02-28T09:29:19.206Z,102344.25
2023-02-28T09:34:20.763Z,102354.97
2023-02-28T09:39:23.702Z,102355.03
2023-02-28T09:44:37.230Z,102343.09
2023-02-28T09:49:43.344Z,102348.91
2023-02-28T09:54:44.854Z,102340.44
2023-02-28T09:59:52.141Z,102345.53
2023-02-28T10:05:00.339Z,102344.34
2023-02-28T10:10:08.158Z,102341.66
2023-02-28T10:15:15.697Z,102344.66
2023-02-28T10:20:23.623Z,102336.94
2023-02-28T10:25:28.903Z,102329.13
2023-02-28T10:30:30.426Z,102331.03
2023-02-28T10:35:31.950Z,102340.66
2023-02-28T10:40:36.099Z,102321.88
2023-02-28T10:45:37.764Z,102319.47
2023-02-28T10:50:48.079Z,102311.41
2023-02-28T10:56:03.732Z,102304.16
2023-02-28T11:01:05.227Z,102303.53
2023-02-28T11:06:31.643Z,102309.47
2023-02-28T11:11:45.045Z,102294.84
2023-02-28T11:16:46.829Z,102291.47
2023-02-28T11:22:01.274Z,102297.59
2023-02-28T11:27:02.843Z,102292.06
2023-02-28T11:32:13.646Z,102295.94
2023-02-28T11:37:20.367Z,102279.56
2023-02-28T11:42:32.601Z,102292.06
2023-02-28T11:47:46.059Z,102286.72
2023-02-28T11:52:55.522Z,102284.31
2023-02-28T11:58:15.139Z,102283.75
2023-02-28T12:03:28.855Z,102293.03
2023-02-28T12:08:48.350Z,102289.00
2023-02-28T12:14:30.958Z,102285.13
2023-02-28T12:20:01.745Z,102285.81
2023-02-28T12:25:05.894Z,102273.63
2023-02-28T12:30:15.884Z,102272.75
2023-02-28T12:35:22.815Z,102270.28
2023-02-28T12:40:31.832Z,102265.94
2023-02-28T12:45:49.259Z,102261.16
2023-02-28T12:50:51.420Z,102253.78
2023-02-28T12:56:18.456Z,102238.88
2023-02-28T13:01:41.787Z,102233.47
2023-02-28T13:06:58.544Z,102235.88
2023-02-28T13:12:00.288Z,102227.38
2023-02-28T13:17:07.843Z,102215.41
2023-02-28T13:22:44.132Z,102230.03
2023-02-28T13:27:45.643Z,102224.38
2023-02-28T13:32:47.208Z,102229.31
2023-02-28T13:37:49.192Z,102224.25
2023-02-28T13:42:50.999Z,102204.22
2023-02-28T13:47:54.029Z,102204.97
2023-02-28T13:53:13.518Z,102206.38
2023-02-28T13:58:44.699Z,102197.97
2023-02-28T14:04:23.202Z,102200.00
2023-02-28T14:09:27.301Z,102203.69
2023-02-28T14:14:37.708Z,102189.16
2023-02-28T14:19:40.995Z,102189.78
2023-02-28T14:24:42.432Z,102175.50
2023-02-28T14:30:05.724Z,102174.47
2023-02-28T14:35:39.574Z,102182.19
2023-02-28T14:40:41.661Z,102178.50
2023-02-28T14:45:43.245Z,102173.19
2023-02-28T14:50:51.830Z,102170.75
2023-02-28T14:55:53.614Z,102171.59
2023-02-28T15:00:57.620Z,102159.03
2023-02-28T15:06:02.876Z,102159.16
2023-02-28T15:11:10.148Z,102158.31
2023-02-28T15:16:23.869Z,102156.41
2023-02-28T15:21:40.315Z,102155.91
2023-02-28T15:26:49.401Z,102150.97
2023-02-28T15:31:58.226Z,102152.75
2023-02-28T15:36:59.980Z,102150.97
2023-02-28T15:42:12.452Z,102156.19
2023-02-28T15:47:20.426Z,102147.41
2023-02-28T15:52:38.427Z,102148.50
2023-02-28T15:57:41.591Z,102147.56
2023-02-28T16:02:45.450Z,102155.63
2023-02-28T16:07:47.407Z,102154.50
2023-02-28T16:12:48.930Z,102156.59
2023-02-28T16:17:50.495Z,102154.44
2023-02-28T16:22:52.557Z,102160.28
2023-02-28T16:27:54.824Z,102154.66
2023-02-28T16:32:56.831Z,102163.34
2023-02-28T16:37:58.342Z,102159.63
2023-02-28T16:43:01.588Z,102161.69
2023-02-28T16:48:03.112Z,102158.22
2023-02-28T16:53:04.614Z,102173.31
2023-02-28T16:58:06.263Z,102166.13
2023-02-28T17:03:31.948Z,102176.69
2023-02-28T17:08:34.467Z,102190.63
2023-02-28T17:13:35.960Z,102186.66
2023-02-28T17:18:37.540Z,102200.00
2023-02-28T17:23:39.040Z,102205.47
2023-02-28T17:28:40.582Z,102211.03
2023-02-28T17:33:42.136Z,102214.34
2023-02-28T17:38:43.624Z,102224.00
2023-02-28T17:43:45.163Z,102227.31
2023-02-28T17:48:53.757Z,102232.91
2023-02-28T17:53:55.277Z,102226.16
2023-02-28T17:58:57.478Z,102229.81
2023-02-28T18:03:59.039Z,102225.13
2023-02-28T18:09:00.539Z,102228.59
2023-02-28T18:14:02.057Z,102231.13
2023-02-28T18:19:03.566Z,102236.88
2023-02-28T18:24:05.191Z,102234.75
2023-02-28T18:29:07.557Z,102231.50
2023-02-28T18:34:09.155Z,102236.00
2023-02-28T18:39:10.718Z,102238.06
2023-02-28T18:44:20.968Z,102241.75
2023-02-28T18:49:22.685Z,102245.91
2023-02-28T18:54:24.190Z,102242.78
2023-02-28T18:59:26.291Z,102255.41
2023-02-28T19:04:27.889Z,102251.28
2023-02-28T19:09:29.449Z,102261.50
2023-02-28T19:14:31.231Z,102265.25
2023-02-28T19:19:32.766Z,102265.66
2023-02-28T19:24:34.288Z,102269.50
2023-02-28T19:29:35.862Z,102267.44
2023-02-28T19:34:37.373Z,102269.22
2023-02-28T19:39:39.070Z,102264.13
2023-02-28T19:44:41.229Z,102266.66
2023-02-28T19:49:42.706Z,102268.22
2023-02-28T19:54:44.195Z,102272.66
2023-02-28T19:59:45.763Z,102275.63
2023-02-28T20:04:48.934Z,102280.63
2023-02-28T20:09:50.532Z,102274.72
2023-02-28T20:14:53.280Z,102273.94
2023-02-28T20:19:54.753Z,102266.53
2023-02-28T20:24:56.243Z,102259.03
2023-02-28T20:29:57.783Z,102261.44
2023-02-28T20:34:59.287Z,102253.97
2023-02-28T20:40:00.770Z,102257.56
2023-02-28T20:45:02.301Z,102254.69
2023-02-28T20:50:04.040Z,102267.59
2023-02-28T20:55:06.435Z,102256.00
2023-02-28T21:00:08.971Z,102249.34
2023-02-28T21:05:10.464Z,102251.00
2023-02-28T21:10:12.110Z,102252.19
2023-02-28T21:15:13.639Z,102251.28
2023-02-28T21:20:15.363Z,102254.50
2023-02-28T21:25:16.970Z,102244.44
2023-02-28T21:30:18.645Z,102257.94
2023-02-28T21:35:20.225Z,102258.91
2023-02-28T21:40:21.904Z,102262.69
2023-02-28T21:45:23.388Z,102266.34
2023-02-28T21:50:24.933Z,102270.53
2023-02-28T21:55:26.416Z,102280.22
2023-02-28T22:00:27.978Z,102285.22
2023-02-28T22:05:29.713Z,102285.50
2023-02-28T22:10:33.980Z,102286.56
2023-02-28T22:15:37.402Z,102287.75
2023-02-28T22:20:38.898Z,102294.22
2023-02-28T22:25:40.409Z,102297.00
2023-02-28T22:30:41.906Z,102302.56
2023-02-28T22:35:43.443Z,102282.81
2023-02-28T22:40:44.997Z,102277.28
2023-02-28T22:45:46.522Z,102278.72
2023-02-28T22:50:48.051Z,102271.94
2023-02-28T22:55:54.863Z,102277.22
2023-02-28T23:00:56.655Z,102268.69
2023-02-28T23:05:58.240Z,102257.03
2023-02-28T23:10:59.753Z,102262.81
2023-02-28T23:16:04.612Z,102271.00
2023-02-28T23:21:06.132Z,102262.91
2023-02-28T23:26:08.407Z,102275.59
2023-02-28T23:31:09.934Z,102283.53
2023-02-28T23:36:13.506Z,102273.00
2023-02-28T23:41:16.305Z,102280.59
2023-02-28T23:46:18.192Z,102278.47
2023-02-28T23:51:21.532Z,102274.38
2023-02-28T23:56:25.142Z,102275.44
